Time;durP1;ratioP1;P1;durP2;ratioP2;P2;SDS_P1;SDS_P2;PMS_P1;PMS_P2;Temp;Humidity;BMP_temperature;BMP_pressure;BME280_temperature;BME280_humidity;BME280_pressure;Samples;Min_cycle;Max_cycle;Signal;HPM_P1;HPM_P2
2022/08/05 00:00:26;;;;;;;4.72;1.83;;;19.70;99.90;;;;;;5073235;28;20142;-57
2022/08/05 00:02:52;;;;;;;5.93;2.08;;;19.70;99.90;;;;;;5073530;28;20036;-56
2022/08/05 00:05:19;;;;;;;7.40;1.88;;;19.70;99.90;;;;;;5073359;28;20506;-57
2022/08/05 00:07:45;;;;;;;7.00;2.05;;;19.70;99.90;;;;;;5073512;28;20033;-56
2022/08/05 00:10:11;;;;;;;7.15;2.30;;;19.70;99.90;;;;;;5073403;28;20051;-57
2022/08/05 00:12:37;;;;;;;8.70;2.22;;;19.60;99.90;;;;;;5073486;28;20040;-57
2022/08/05 00:15:04;;;;;;;6.60;2.53;;;19.60;99.90;;;;;;5073383;28;20039;-57
2022/08/05 00:17:29;;;;;;;5.57;2.33;;;19.60;99.90;;;;;;5075668;28;20041;-57
2022/08/05 00:19:55;;;;;;;5.85;2.08;;;19.50;99.90;;;;;;5077281;28;20036;-57
2022/08/05 00:22:20;;;;;;;5.22;2.10;;;19.60;99.90;;;;;;5077252;28;20074;-57
2022/08/05 00:24:46;;;;;;;3.78;1.30;;;19.60;99.90;;;;;;5077087;28;20364;-57
2022/08/05 00:27:12;;;;;;;7.45;1.80;;;19.60;99.90;;;;;;5077242;28;20075;-58
2022/08/05 00:29:37;;;;;;;4.10;1.42;;;19.60;99.90;;;;;;5077099;28;20029;-57
2022/08/05 00:32:04;;;;;;;6.00;2.28;;;19.60;99.90;;;;;;5076801;28;20032;-57
2022/08/05 00:34:30;;;;;;;4.07;2.03;;;19.60;99.90;;;;;;5077092;28;20037;-57
2022/08/05 00:36:55;;;;;;;4.75;1.88;;;19.70;99.90;;;;;;5076998;28;20040;-57
2022/08/05 00:39:21;;;;;;;6.10;2.38;;;19.60;99.90;;;;;;5076964;28;20094;-56
2022/08/05 00:41:47;;;;;;;7.88;2.38;;;19.60;99.90;;;;;;5076631;28;20064;-56
2022/08/05 00:44:13;;;;;;;5.13;1.83;;;19.50;99.90;;;;;;5076762;28;20059;-56
2022/08/05 00:46:39;;;;;;;7.25;2.15;;;19.50;99.90;;;;;;5076804;28;20036;-56
2022/08/05 00:49:04;;;;;;;5.70;2.20;;;19.40;99.90;;;;;;5076627;28;20505;-56
2022/08/05 00:51:30;;;;;;;5.93;1.95;;;19.40;99.90;;;;;;5076576;28;20039;-57
2022/08/05 00:53:56;;;;;;;6.50;2.05;;;19.50;99.90;;;;;;5076686;28;20037;-56
2022/08/05 00:56:21;;;;;;;8.32;3.22;;;19.40;99.90;;;;;;5076849;28;20044;-57
2022/08/05 00:58:47;;;;;;;7.22;2.38;;;19.40;99.90;;;;;;5076502;28;20045;-57
2022/08/05 01:01:16;;;;;;;3.40;2.10;;;19.40;99.90;;;;;;5076611;28;20045;-57
2022/08/05 01:03:42;;;;;;;4.97;2.47;;;19.40;99.90;;;;;;5076512;28;20047;-58
2022/08/05 01:06:09;;;;;;;8.63;2.47;;;19.30;99.90;;;;;;5076631;28;20043;-57
2022/08/05 01:08:35;;;;;;;4.05;2.10;;;19.40;99.90;;;;;;5076326;28;20044;-57
2022/08/05 01:11:22;;;;;;;6.65;2.65;;;19.40;99.90;;;;;;5076324;28;20033;-57
2022/08/05 01:14:16;;;;;;;8.18;2.85;;;19.40;99.90;;;;;;5075971;28;20049;-56
2022/08/05 01:16:50;;;;;;;8.25;2.85;;;19.40;99.90;;;;;;5034295;28;20410;-57
2022/08/05 01:19:22;;;;;;;6.38;3.08;;;19.20;99.90;;;;;;5034115;28;20479;-57
2022/08/05 01:22:12;;;;;;;5.45;2.65;;;19.30;99.90;;;;;;5034194;28;20080;-57
2022/08/05 01:24:43;;;;;;;8.32;3.10;;;19.30;99.90;;;;;;5033857;28;20606;-57
2022/08/05 01:27:32;;;;;;;6.15;2.63;;;19.30;99.90;;;;;;5033982;28;20048;-58
2022/08/05 01:30:02;;;;;;;5.70;2.40;;;19.20;99.90;;;;;;5033329;28;20041;-58
2022/08/05 01:32:32;;;;;;;6.93;3.08;;;19.20;99.90;;;;;;5034016;28;20037;-58
2022/08/05 01:35:01;;;;;;;5.65;2.78;;;19.30;99.90;;;;;;5033842;28;20050;-58
2022/08/05 01:37:43;;;;;;;8.45;2.95;;;19.30;99.90;;;;;;5033786;28;20120;-57
2022/08/05 01:40:11;;;;;;;5.80;2.30;;;19.20;99.90;;;;;;5033486;28;20092;-57
2022/08/05 01:42:39;;;;;;;6.68;2.40;;;19.20;99.90;;;;;;5033747;28;20045;-56
2022/08/05 01:45:06;;;;;;;6.90;2.40;;;19.20;99.90;;;;;;5033626;28;20049;-56
2022/08/05 01:47:34;;;;;;;7.10;2.67;;;19.20;99.90;;;;;;5033561;28;20132;-57
2022/08/05 01:50:03;;;;;;;8.43;3.30;;;19.30;99.90;;;;;;5017010;28;20037;-57
2022/08/05 01:52:31;;;;;;;7.28;2.83;;;19.20;99.90;;;;;;5035198;28;20053;-57
2022/08/05 01:55:01;;;;;;;4.75;2.63;;;19.30;99.90;;;;;;5075409;28;20040;-57
2022/08/05 01:57:38;;;;;;;5.05;2.40;;;19.30;99.90;;;;;;5074306;28;20040;-56
2022/08/05 02:00:06;;;;;;;5.95;2.50;;;19.20;99.90;;;;;;5075547;28;20071;-56
2022/08/05 02:02:35;;;;;;;7.35;3.58;;;19.30;99.90;;;;;;5075309;28;20123;-56
2022/08/05 02:05:08;;;;;;;7.25;3.38;;;19.30;99.90;;;;;;5075208;28;20036;-56
2022/08/05 02:07:35;;;;;;;10.23;3.42;;;19.30;99.90;;;;;;5075373;28;20047;-56
2022/08/05 02:10:02;;;;;;;8.02;2.70;;;19.30;99.90;;;;;;5075277;28;20037;-55
2022/08/05 02:12:36;;;;;;;8.20;3.40;;;19.30;99.90;;;;;;5075287;28;20045;-57
2022/08/05 02:15:16;;;;;;;5.95;2.75;;;19.20;99.90;;;;;;5075207;28;20052;-57
2022/08/05 02:17:52;;;;;;;7.53;3.17;;;19.20;99.90;;;;;;5075156;28;20043;-57
2022/08/05 02:20:23;;;;;;;9.98;3.10;;;19.20;99.90;;;;;;5074990;28;20052;-58
2022/08/05 02:22:57;;;;;;;11.55;3.70;;;19.20;99.90;;;;;;5074934;28;20041;-57
2022/08/05 02:25:30;;;;;;;7.70;2.90;;;19.20;99.90;;;;;;5074975;28;20383;-58
2022/08/05 02:27:57;;;;;;;5.30;2.85;;;19.10;99.90;;;;;;5074961;28;20032;-58
2022/08/05 02:30:24;;;;;;;4.50;2.25;;;19.10;99.90;;;;;;5074825;28;20177;-57
2022/08/05 02:32:53;;;;;;;7.03;3.22;;;19.10;99.90;;;;;;5074547;28;20394;-57
2022/08/05 02:35:21;;;;;;;8.40;2.83;;;19.10;99.90;;;;;;5074890;28;20387;-57
2022/08/05 02:37:49;;;;;;;9.27;2.90;;;19.00;99.90;;;;;;5074781;28;20044;-57
2022/08/05 02:40:19;;;;;;;5.78;2.28;;;19.00;99.90;;;;;;5074128;28;20052;-57
2022/08/05 02:42:47;;;;;;;8.73;2.75;;;19.00;99.90;;;;;;5074584;28;20098;-57
2022/08/05 02:45:14;;;;;;;5.18;2.15;;;19.00;99.90;;;;;;5074561;28;20116;-57
2022/08/05 02:47:41;;;;;;;4.40;2.58;;;19.00;99.90;;;;;;5074788;28;20046;-57
2022/08/05 02:50:08;;;;;;;6.95;2.33;;;19.10;99.90;;;;;;5074451;28;20041;-56
2022/08/05 02:52:34;;;;;;;7.25;1.98;;;19.00;99.90;;;;;;5074391;28;20035;-57
2022/08/05 02:55:01;;;;;;;7.20;2.30;;;19.00;99.90;;;;;;5074414;28;20040;-57
2022/08/05 02:57:27;;;;;;;4.55;2.08;;;19.00;99.90;;;;;;5073310;28;20037;-56
2022/08/05 02:59:54;;;;;;;4.68;2.40;;;19.00;99.90;;;;;;5074152;28;20398;-56
2022/08/05 03:02:25;;;;;;;7.47;3.03;;;19.00;99.90;;;;;;5072884;28;20453;-57
2022/08/05 03:04:53;;;;;;;9.98;3.13;;;19.00;99.90;;;;;;5074208;28;20041;-57
2022/08/05 03:07:20;;;;;;;8.45;3.05;;;19.10;99.90;;;;;;5074223;28;20120;-56
2022/08/05 03:09:46;;;;;;;5.22;2.78;;;19.10;99.90;;;;;;5074256;28;20040;-57
2022/08/05 03:12:29;;;;;;;5.85;3.00;;;19.00;99.90;;;;;;5074096;28;20036;-57
2022/08/05 03:14:55;;;;;;;5.60;2.95;;;19.00;99.90;;;;;;5074101;28;20398;-57
2022/08/05 03:17:20;;;;;;;6.63;2.88;;;19.00;99.90;;;;;;5074087;28;20040;-57
2022/08/05 03:19:46;;;;;;;6.93;3.03;;;19.00;99.90;;;;;;5073966;28;20044;-57
2022/08/05 03:22:13;;;;;;;6.45;2.60;;;19.00;99.90;;;;;;5073929;28;20036;-60
2022/08/05 03:24:39;;;;;;;5.40;2.60;;;19.00;99.90;;;;;;5073930;28;20044;-57
2022/08/05 03:27:05;;;;;;;5.85;3.25;;;18.90;99.90;;;;;;5073886;28;20052;-56
2022/08/05 03:29:30;;;;;;;7.75;3.63;;;18.80;99.90;;;;;;5073956;28;20032;-58
2022/08/05 03:31:56;;;;;;;6.72;3.47;;;18.80;99.90;;;;;;5073918;28;20036;-57
2022/08/05 03:34:22;;;;;;;5.32;3.33;;;18.80;99.90;;;;;;5072813;28;20045;-58
2022/08/05 03:36:47;;;;;;;7.22;3.15;;;18.80;99.90;;;;;;5073927;28;20036;-57
2022/08/05 03:39:13;;;;;;;6.40;3.40;;;18.70;99.90;;;;;;5073440;28;20041;-57
2022/08/05 03:41:39;;;;;;;7.13;3.10;;;18.70;99.90;;;;;;5073487;28;20059;-58
2022/08/05 03:44:04;;;;;;;3.78;2.92;;;18.70;99.90;;;;;;5073629;28;20037;-58
2022/08/05 03:46:30;;;;;;;4.85;2.83;;;18.70;99.90;;;;;;5073705;28;20068;-58
2022/08/05 03:48:57;;;;;;;5.45;3.33;;;18.70;99.90;;;;;;5073582;28;20032;-57
2022/08/05 03:51:31;;;;;;;8.30;3.30;;;18.70;99.90;;;;;;5075429;28;20356;-57
2022/08/05 03:53:59;;;;;;;6.22;3.30;;;18.70;99.90;;;;;;5080267;28;20040;-57
2022/08/05 03:56:44;;;;;;;7.30;2.67;;;18.70;99.90;;;;;;5080394;28;20127;-57
2022/08/05 03:59:16;;;;;;;7.60;3.28;;;18.70;99.90;;;;;;5080347;28;20136;-58
2022/08/05 04:01:45;;;;;;;5.65;3.00;;;18.60;99.90;;;;;;5080336;28;20075;-58
2022/08/05 04:04:13;;;;;;;8.75;3.15;;;18.50;99.90;;;;;;5080598;28;20479;-58
2022/08/05 04:06:40;;;;;;;5.68;2.95;;;18.60;99.90;;;;;;5080240;28;20041;-58
2022/08/05 04:09:06;;;;;;;7.90;3.08;;;18.50;99.90;;;;;;5080241;28;20037;-57
2022/08/05 04:11:33;;;;;;;7.85;2.88;;;18.50;99.90;;;;;;5080200;28;20048;-58
2022/08/05 04:13:59;;;;;;;6.95;3.13;;;18.40;99.90;;;;;;5079209;28;20120;-58
2022/08/05 04:16:25;;;;;;;6.72;3.08;;;18.40;99.90;;;;;;5080127;28;20471;-58
2022/08/05 04:18:52;;;;;;;5.22;2.78;;;18.40;99.90;;;;;;5062080;28;20041;-58
2022/08/05 04:21:18;;;;;;;4.72;2.75;;;18.40;99.90;;;;;;5080242;28;20498;-58
2022/08/05 04:23:44;;;;;;;7.13;3.05;;;18.20;99.90;;;;;;5080070;28;20033;-58
2022/08/05 04:26:09;;;;;;;7.70;3.00;;;18.40;99.90;;;;;;5080065;28;20505;-57
2022/08/05 04:28:35;;;;;;;11.27;2.85;;;18.30;99.90;;;;;;5079967;28;20104;-57
2022/08/05 04:31:01;;;;;;;2.97;2.65;;;18.30;99.90;;;;;;5080127;28;20467;-57
2022/08/05 04:33:27;;;;;;;5.82;2.95;;;18.20;99.90;;;;;;5079947;28;20082;-58
2022/08/05 04:35:52;;;;;;;5.40;3.05;;;18.30;99.90;;;;;;5080059;28;20043;-57
2022/08/05 04:38:18;;;;;;;4.15;2.90;;;18.20;99.90;;;;;;5079974;28;20190;-58
2022/08/05 04:40:44;;;;;;;6.45;2.65;;;18.30;99.90;;;;;;5079454;28;20452;-57
2022/08/05 04:43:12;;;;;;;5.15;2.60;;;18.30;99.90;;;;;;5079174;28;20398;-58
2022/08/05 04:45:38;;;;;;;7.65;3.05;;;18.30;99.90;;;;;;5079929;28;20055;-58
2022/08/05 04:48:09;;;;;;;8.57;3.03;;;18.30;99.90;;;;;;5079917;28;20033;-59
2022/08/05 04:50:53;;;;;;;6.65;3.28;;;18.30;99.90;;;;;;5079829;28;20037;-59
2022/08/05 04:53:19;;;;;;;5.97;3.17;;;18.20;99.90;;;;;;5079676;28;20040;-58
2022/08/05 04:55:45;;;;;;;3.78;2.60;;;18.30;99.90;;;;;;5079815;28;20090;-58
2022/08/05 04:58:13;;;;;;;3.40;2.75;;;18.20;99.90;;;;;;5079200;28;20041;-58
2022/08/05 05:00:39;;;;;;;7.32;3.17;;;18.40;99.90;;;;;;5079778;28;20115;-57
2022/08/05 05:03:06;;;;;;;6.15;2.80;;;18.40;99.90;;;;;;5078217;28;20040;-57
2022/08/05 05:05:32;;;;;;;7.65;3.15;;;18.40;99.90;;;;;;5075218;28;20044;-58
2022/08/05 05:08:03;;;;;;;10.02;3.20;;;18.40;99.90;;;;;;5076842;28;20042;-57
2022/08/05 05:10:31;;;;;;;3.70;2.92;;;18.40;99.90;;;;;;5076403;28;20032;-58
2022/08/05 05:12:57;;;;;;;6.55;3.10;;;18.40;99.90;;;;;;5076404;28;20162;-57
2022/08/05 05:15:22;;;;;;;5.38;3.63;;;18.40;99.90;;;;;;5076097;28;20060;-58
2022/08/05 05:17:48;;;;;;;5.18;2.90;;;18.40;99.90;;;;;;5076352;28;20036;-56
2022/08/05 05:20:14;;;;;;;6.00;3.05;;;18.40;99.90;;;;;;5076312;28;20040;-57
2022/08/05 05:22:40;;;;;;;7.68;3.05;;;18.40;99.90;;;;;;5076281;28;20064;-57
2022/08/05 05:25:07;;;;;;;5.97;3.78;;;18.30;99.90;;;;;;5076267;28;20048;-56
2022/08/05 05:27:34;;;;;;;6.55;2.53;;;18.30;99.90;;;;;;5076074;28;20032;-56
2022/08/05 05:30:00;;;;;;;6.32;2.67;;;18.30;99.90;;;;;;5076083;28;20093;-56
2022/08/05 05:32:25;;;;;;;6.07;3.20;;;18.40;99.90;;;;;;5076094;28;20036;-57
2022/08/05 05:34:52;;;;;;;5.18;3.45;;;18.40;99.90;;;;;;5076002;28;20063;-57
2022/08/05 05:37:17;;;;;;;4.80;3.00;;;18.30;99.90;;;;;;5075876;28;20044;-56
2022/08/05 05:39:43;;;;;;;9.80;3.38;;;18.30;99.90;;;;;;5075700;28;20047;-56
2022/08/05 05:42:09;;;;;;;5.13;2.67;;;18.30;99.90;;;;;;5074553;28;20065;-56
2022/08/05 05:44:35;;;;;;;7.28;3.03;;;18.30;99.90;;;;;;5075762;28;20371;-56
2022/08/05 05:47:01;;;;;;;6.95;2.90;;;18.30;99.90;;;;;;5075762;28;20047;-55
2022/08/05 05:49:26;;;;;;;4.22;2.60;;;18.40;99.90;;;;;;5075527;28;20115;-57
2022/08/05 05:51:54;;;;;;;5.70;3.30;;;18.30;99.90;;;;;;5075626;28;20526;-56
2022/08/05 05:54:20;;;;;;;4.70;2.90;;;18.30;99.90;;;;;;5075591;28;20040;-57
2022/08/05 05:56:45;;;;;;;6.80;3.10;;;18.30;99.90;;;;;;5075498;28;20041;-57
2022/08/05 05:59:11;;;;;;;6.45;3.00;;;18.30;99.90;;;;;;5075541;28;20062;-57
2022/08/05 06:01:39;;;;;;;6.22;2.95;;;18.30;99.90;;;;;;5075091;28;20044;-57
2022/08/05 06:04:09;;;;;;;3.35;2.38;;;18.40;99.90;;;;;;5075129;28;20493;-57
2022/08/05 06:06:35;;;;;;;5.20;2.70;;;18.40;99.90;;;;;;5075492;28;20037;-57
2022/08/05 06:09:05;;;;;;;3.00;2.30;;;18.40;99.90;;;;;;5075390;28;20379;-57
2022/08/05 06:11:31;;;;;;;6.95;3.20;;;18.50;99.90;;;;;;5075206;28;20041;-57
2022/08/05 06:13:58;;;;;;;3.22;2.80;;;18.60;99.90;;;;;;5074959;28;20102;-58
2022/08/05 06:16:24;;;;;;;5.25;2.88;;;18.80;99.90;;;;;;5074897;28;20032;-58
2022/08/05 06:18:49;;;;;;;6.63;2.80;;;19.00;99.90;;;;;;5075119;28;20044;-57
2022/08/05 06:21:16;;;;;;;3.95;2.40;;;19.20;99.90;;;;;;5075048;28;20036;-57
2022/08/05 06:23:42;;;;;;;2.42;2.08;;;19.20;99.90;;;;;;5074835;28;20036;-57
2022/08/05 06:26:07;;;;;;;6.00;2.30;;;19.30;99.90;;;;;;5074949;28;20136;-57
2022/08/05 06:28:33;;;;;;;5.05;2.03;;;19.30;99.90;;;;;;5074697;28;20032;-57
2022/08/05 06:30:59;;;;;;;6.57;2.05;;;19.40;99.90;;;;;;5074935;28;20127;-58
2022/08/05 06:33:24;;;;;;;4.10;2.10;;;19.50;99.90;;;;;;5074810;28;20119;-57
2022/08/05 06:35:50;;;;;;;4.18;1.60;;;19.70;99.90;;;;;;5074625;28;20032;-58
2022/08/05 06:38:16;;;;;;;4.78;1.60;;;19.80;99.90;;;;;;5074510;28;20041;-57
2022/08/05 06:40:42;;;;;;;2.42;1.48;;;19.80;99.90;;;;;;5074385;28;20056;-58
2022/08/05 06:43:08;;;;;;;2.55;1.30;;;19.80;99.90;;;;;;5074597;28;20130;-58
2022/08/05 06:45:34;;;;;;;3.83;1.02;;;19.90;99.90;;;;;;5074438;28;20033;-57
2022/08/05 06:48:00;;;;;;;2.72;1.30;;;20.00;99.90;;;;;;5074529;28;20040;-56
2022/08/05 06:50:25;;;;;;;2.60;1.00;;;20.10;99.90;;;;;;5074282;28;20040;-56
2022/08/05 06:52:52;;;;;;;3.22;0.73;;;20.30;99.90;;;;;;5074506;28;20040;-56
2022/08/05 06:55:17;;;;;;;2.40;0.82;;;20.60;99.90;;;;;;5074433;28;20048;-57
2022/08/05 06:57:43;;;;;;;4.68;1.23;;;20.60;99.90;;;;;;5074440;28;20387;-57
2022/08/05 07:00:09;;;;;;;3.08;0.88;;;20.60;99.90;;;;;;5074311;28;20470;-56
2022/08/05 07:02:45;;;;;;;3.58;0.90;;;20.50;99.90;;;;;;5074361;28;20056;-56
2022/08/05 07:05:12;;;;;;;2.20;1.13;;;20.50;99.90;;;;;;5074215;28;20045;-57
2022/08/05 07:07:38;;;;;;;4.10;1.48;;;20.80;99.90;;;;;;5074111;28;20044;-56
2022/08/05 07:10:05;;;;;;;4.60;0.70;;;20.90;99.90;;;;;;5074229;28;20040;-57
2022/08/05 07:17:59;;;;;;;2.00;1.10;;;21.50;99.90;;;;;;5074073;28;20044;-56
2022/08/05 07:20:25;;;;;;;3.30;0.82;;;21.60;99.90;;;;;;5074344;28;20540;-56
2022/08/05 07:22:50;;;;;;;6.03;1.25;;;21.60;99.90;;;;;;5073769;28;20078;-56
2022/08/05 07:25:16;;;;;;;3.90;1.08;;;21.80;99.90;;;;;;5073836;28;20045;-56
2022/08/05 07:27:42;;;;;;;2.97;1.00;;;22.00;99.90;;;;;;5073269;28;20051;-57
2022/08/05 07:30:08;;;;;;;5.10;1.35;;;22.20;99.90;;;;;;5073808;28;20478;-56
2022/08/05 07:32:37;;;;;;;3.08;0.93;;;22.40;99.90;;;;;;5073908;28;20036;-57
2022/08/05 07:35:08;;;;;;;3.88;1.13;;;22.10;99.90;;;;;;5073515;28;20552;-57
2022/08/05 07:37:33;;;;;;;1.50;0.80;;;21.80;99.90;;;;;;5073886;28;20040;-57
2022/08/05 07:39:59;;;;;;;1.73;0.80;;;21.70;99.90;;;;;;5072467;28;20040;-57
2022/08/05 07:42:24;;;;;;;3.55;0.80;;;21.70;99.90;;;;;;5073794;28;20049;-57
2022/08/05 07:44:50;;;;;;;3.55;1.08;;;21.90;99.90;;;;;;5073679;28;20123;-57
2022/08/05 07:47:16;;;;;;;2.78;0.60;;;21.80;99.90;;;;;;5073441;28;20040;-56
2022/08/05 07:49:41;;;;;;;2.40;0.77;;;22.00;99.90;;;;;;5074171;28;20115;-56
2022/08/05 07:52:07;;;;;;;2.38;0.82;;;22.20;99.90;;;;;;5073749;28;20075;-56
2022/08/05 07:54:32;;;;;;;1.48;0.52;;;22.30;99.90;;;;;;5073574;28;20390;-56
2022/08/05 07:56:59;;;;;;;2.50;0.55;;;22.70;99.90;;;;;;5073711;28;20742;-57
2022/08/05 07:59:24;;;;;;;3.17;0.80;;;23.20;99.90;;;;;;5073678;28;20041;-57
2022/08/05 08:01:51;;;;;;;1.65;0.60;;;23.50;99.90;;;;;;5073567;28;20487;-56
2022/08/05 08:04:16;;;;;;;2.13;0.60;;;23.50;99.90;;;;;;5073369;28;20041;-57
2022/08/05 08:06:42;;;;;;;2.80;0.70;;;23.30;99.90;;;;;;5073550;28;20090;-56
2022/08/05 08:09:08;;;;;;;1.67;0.57;;;23.30;99.90;;;;;;5073503;28;20360;-56
2022/08/05 08:11:34;;;;;;;3.67;0.73;;;23.70;99.90;;;;;;5073525;28;20376;-57
2022/08/05 08:13:59;;;;;;;5.25;0.70;;;23.80;99.90;;;;;;5073507;28;20051;-57
2022/08/05 08:16:25;;;;;;;1.85;0.63;;;23.60;99.90;;;;;;5073609;28;20115;-57
2022/08/05 08:18:50;;;;;;;2.70;0.70;;;23.40;99.90;;;;;;5073475;28;20045;-57
2022/08/05 08:21:16;;;;;;;3.90;0.80;;;24.00;99.90;;;;;;5073538;28;20101;-59
2022/08/05 08:23:41;;;;;;;3.72;0.75;;;24.30;99.90;;;;;;5073291;28;20041;-58
2022/08/05 08:26:07;;;;;;;1.63;0.77;;;24.30;99.90;;;;;;5073434;28;20468;-57
2022/08/05 08:28:33;;;;;;;1.65;0.70;;;24.10;99.90;;;;;;5073196;28;20089;-57
2022/08/05 08:30:58;;;;;;;2.03;0.65;;;23.60;99.90;;;;;;5073010;28;20565;-57
2022/08/05 08:33:24;;;;;;;2.75;0.85;;;23.00;99.90;;;;;;5073296;28;20368;-58
2022/08/05 08:35:49;;;;;;;2.97;0.60;;;22.40;99.90;;;;;;5073529;28;20123;-58
2022/08/05 08:38:15;;;;;;;4.18;1.45;;;22.50;99.90;;;;;;5074884;28;20059;-57
2022/08/05 08:40:41;;;;;;;5.63;0.95;;;22.50;99.90;;;;;;5076737;28;20105;-58
2022/08/05 08:43:13;;;;;;;2.25;0.55;;;22.80;99.90;;;;;;5076838;28;20044;-56
2022/08/05 08:45:39;;;;;;;3.25;0.82;;;23.00;99.90;;;;;;5076921;28;20036;-57
2022/08/05 08:48:05;;;;;;;3.00;0.55;;;23.40;99.90;;;;;;5076882;28;20489;-57
2022/08/05 08:50:34;;;;;;;2.20;0.70;;;23.60;99.90;;;;;;5077151;28;20044;-57
2022/08/05 08:53:04;;;;;;;2.47;0.80;;;23.90;99.90;;;;;;5076765;28;20120;-58
2022/08/05 08:55:30;;;;;;;2.65;0.63;;;23.40;99.90;;;;;;5076783;28;20124;-57
2022/08/05 08:57:59;;;;;;;1.73;0.60;;;22.90;99.90;;;;;;5076740;28;20040;-58
2022/08/05 09:00:25;;;;;;;3.80;0.75;;;22.50;99.90;;;;;;5076403;28;20544;-57
2022/08/05 09:02:53;;;;;;;3.50;0.50;;;22.60;99.90;;;;;;5076639;28;20037;-57
2022/08/05 09:05:19;;;;;;;5.68;0.40;;;22.80;99.90;;;;;;5076476;28;20041;-56
2022/08/05 09:07:45;;;;;;;1.70;0.57;;;23.10;99.90;;;;;;5076524;28;20047;-57
2022/08/05 09:10:11;;;;;;;1.80;0.82;;;23.30;99.90;;;;;;5076268;28;20475;-57
2022/08/05 09:12:37;;;;;;;0.85;0.50;;;23.50;99.90;;;;;;5076205;28;20037;-57
2022/08/05 09:15:05;;;;;;;0.90;0.40;;;23.90;99.90;;;;;;5076400;28;20052;-57
2022/08/05 09:17:31;;;;;;;3.70;0.68;;;23.30;99.90;;;;;;5076366;28;20078;-57
2022/08/05 09:19:57;;;;;;;1.92;0.65;;;23.30;99.90;;;;;;5076374;28;20040;-57
2022/08/05 09:22:23;;;;;;;1.67;0.60;;;23.40;99.90;;;;;;5076056;28;20475;-57
2022/08/05 09:24:59;;;;;;;1.75;0.65;;;23.30;99.90;;;;;;5076179;28;20043;-57
2022/08/05 09:27:39;;;;;;;1.58;0.47;;;23.50;99.90;;;;;;5076183;28;20052;-57
2022/08/05 09:30:06;;;;;;;0.80;0.50;;;23.60;99.90;;;;;;5076185;28;20037;-56
2022/08/05 09:32:36;;;;;;;1.05;0.57;;;23.70;99.90;;;;;;5076125;28;20028;-56
2022/08/05 09:35:13;;;;;;;2.53;0.50;;;24.00;99.90;;;;;;5075815;28;20549;-57
2022/08/05 09:37:52;;;;;;;4.13;0.50;;;23.70;99.90;;;;;;5075956;28;20083;-58
2022/08/05 09:40:33;;;;;;;4.97;0.47;;;23.10;99.90;;;;;;5076595;28;20402;-57
2022/08/05 09:43:00;;;;;;;0.43;0.43;;;23.10;99.90;;;;;;5075674;28;20581;-56
2022/08/05 09:45:38;;;;;;;2.78;0.52;;;23.20;99.90;;;;;;5075725;28;20056;-57
2022/08/05 09:48:26;;;;;;;3.55;0.65;;;23.70;99.90;;;;;;5074518;28;20047;-57
2022/08/05 09:51:07;;;;;;;1.92;0.80;;;23.90;99.90;;;;;;5074822;28;20052;-56
2022/08/05 09:53:52;;;;;;;1.58;0.80;;;23.90;99.90;;;;;;5076087;28;20386;-57
2022/08/05 09:56:26;;;;;;;3.25;0.65;;;24.10;99.90;;;;;;5075531;28;20045;-57
2022/08/05 09:58:56;;;;;;;1.75;0.43;;;24.30;99.90;;;;;;5075561;28;20049;-57
2022/08/05 10:01:21;;;;;;;9.02;0.85;;;24.10;99.90;;;;;;5075538;28;20078;-57
2022/08/05 10:03:58;;;;;;;1.90;0.60;;;24.30;99.90;;;;;;5075310;28;20040;-58
2022/08/05 10:06:28;;;;;;;1.80;0.40;;;24.00;99.90;;;;;;5075133;28;20479;-58
2022/08/05 10:08:55;;;;;;;1.90;0.50;;;23.90;99.90;;;;;;5075289;28;20471;-58
2022/08/05 10:11:21;;;;;;;1.33;0.43;;;23.60;99.90;;;;;;5075111;28;20471;-57
2022/08/05 10:13:47;;;;;;;1.90;0.60;;;23.80;99.90;;;;;;5075257;28;20048;-57
2022/08/05 10:16:33;;;;;;;2.85;0.40;;;23.60;99.90;;;;;;5074997;28;20074;-57
2022/08/05 10:19:00;;;;;;;0.90;0.30;;;23.90;99.90;;;;;;5075153;28;20040;-58
2022/08/05 10:21:26;;;;;;;1.15;0.45;;;24.10;99.90;;;;;;5075257;28;20040;-57
2022/08/05 10:23:53;;;;;;;0.95;0.35;;;24.20;99.00;;;;;;5074780;28;20525;-57
2022/08/05 10:26:19;;;;;;;2.03;0.40;;;24.30;99.90;;;;;;5075017;28;20032;-57
2022/08/05 10:28:46;;;;;;;2.08;0.38;;;24.40;98.90;;;;;;5074997;28;20043;-57
2022/08/05 10:31:14;;;;;;;1.35;0.20;;;24.50;96.90;;;;;;5075035;28;20037;-57
2022/08/05 10:33:40;;;;;;;4.18;0.50;;;24.70;95.80;;;;;;5073496;28;20464;-56
2022/08/05 10:36:06;;;;;;;1.63;0.20;;;24.60;96.60;;;;;;5074456;28;20032;-57
2022/08/05 10:38:34;;;;;;;2.63;0.30;;;24.50;95.70;;;;;;5074592;28;20040;-57
2022/08/05 10:41:24;;;;;;;1.85;0.25;;;24.70;95.90;;;;;;5074641;28;20052;-56
2022/08/05 10:43:59;;;;;;;2.63;0.40;;;24.90;97.00;;;;;;5074322;28;20127;-56
2022/08/05 10:46:46;;;;;;;3.33;0.60;;;25.00;97.30;;;;;;5074601;28;20044;-56
2022/08/05 10:49:12;;;;;;;3.72;0.20;;;24.90;96.00;;;;;;5074579;28;20033;-57
2022/08/05 10:51:46;;;;;;;1.20;0.38;;;25.00;97.20;;;;;;5074633;28;20036;-56
2022/08/05 10:54:12;;;;;;;1.60;0.50;;;24.80;96.70;;;;;;5074316;28;20041;-56
2022/08/05 10:56:47;;;;;;;0.30;0.08;;;24.90;95.20;;;;;;5074411;28;20379;-56
2022/08/05 10:59:25;;;;;;;1.48;0.30;;;25.00;96.30;;;;;;5074429;28;20044;-56
2022/08/05 11:02:09;;;;;;;2.78;0.30;;;24.90;97.70;;;;;;5074320;28;20052;-57
2022/08/05 11:04:47;;;;;;;3.80;0.20;;;25.10;97.10;;;;;;5074202;28;20433;-57
2022/08/05 11:07:17;;;;;;;1.92;0.20;;;24.80;95.50;;;;;;5074330;28;20124;-57
2022/08/05 11:09:53;;;;;;;2.20;0.38;;;24.70;96.20;;;;;;5074235;28;20044;-57
2022/08/05 11:12:38;;;;;;;3.53;0.35;;;24.90;96.00;;;;;;5073138;28;20506;-56
2022/08/05 11:15:20;;;;;;;1.50;0.20;;;24.90;96.30;;;;;;5073843;28;20494;-57
2022/08/05 11:18:20;;;;;;;2.47;0.40;;;24.80;97.20;;;;;;5074092;28;20040;-57
2022/08/05 11:20:49;;;;;;;2.05;0.28;;;24.90;96.40;;;;;;5074089;28;20101;-57
2022/08/05 11:24:02;;;;;;;0.73;0.30;;;24.90;96.50;;;;;;5073844;28;20071;-57
2022/08/05 11:26:28;;;;;;;1.67;0.20;;;25.00;96.70;;;;;;5031041;28;20049;-57
2022/08/05 11:28:54;;;;;;;3.20;0.70;;;25.20;96.20;;;;;;5031848;28;20041;-57
2022/08/05 11:31:26;;;;;;;2.90;0.55;;;24.70;96.10;;;;;;5031900;28;20124;-56
2022/08/05 11:33:56;;;;;;;3.22;0.43;;;24.60;95.70;;;;;;5031891;28;20037;-57
2022/08/05 11:36:50;;;;;;;6.18;0.60;;;24.60;96.50;;;;;;5031601;28;20245;-57
2022/08/05 11:39:37;;;;;;;9.75;1.38;;;24.30;98.80;;;;;;5029043;28;20056;-57
2022/08/05 11:42:04;;;;;;;5.63;0.60;;;23.90;99.90;;;;;;5031526;28;20115;-57
2022/08/05 11:44:36;;;;;;;2.53;0.60;;;23.80;99.90;;;;;;5031605;28;20054;-57
2022/08/05 11:47:02;;;;;;;2.60;0.52;;;23.80;99.40;;;;;;5031463;28;20048;-57
2022/08/05 11:49:28;;;;;;;4.88;0.80;;;23.60;99.70;;;;;;5031510;28;20128;-57
2022/08/05 11:51:54;;;;;;;3.17;0.73;;;23.60;99.40;;;;;;5031528;28;20116;-57
2022/08/05 11:54:33;;;;;;;5.20;0.85;;;23.60;98.10;;;;;;5031599;28;20077;-58
2022/08/05 11:57:00;;;;;;;2.78;0.70;;;23.80;98.40;;;;;;5015116;28;20061;-57
2022/08/05 11:59:28;;;;;;;4.60;0.60;;;24.10;97.70;;;;;;5031320;28;20056;-58
2022/08/05 12:01:58;;;;;;;3.57;0.63;;;24.20;97.80;;;;;;5036103;28;20276;-57
2022/08/05 12:04:26;;;;;;;2.83;0.57;;;24.10;97.20;;;;;;5073545;28;20119;-58
2022/08/05 12:06:52;;;;;;;2.13;0.70;;;24.00;98.70;;;;;;5073438;28;20045;-59
2022/08/05 12:09:22;;;;;;;1.98;0.43;;;24.40;98.70;;;;;;5073575;28;20114;-58
2022/08/05 12:11:48;;;;;;;3.13;0.85;;;24.60;98.50;;;;;;5073467;28;20041;-58
2022/08/05 12:14:13;;;;;;;3.85;0.90;;;24.60;99.20;;;;;;5077012;28;20047;-58
2022/08/05 12:16:41;;;;;;;3.97;0.82;;;24.50;99.90;;;;;;5077414;28;20048;-58
2022/08/05 12:19:09;;;;;;;1.60;0.57;;;23.80;99.90;;;;;;5077579;28;20043;-57
2022/08/05 12:21:42;;;;;;;4.47;0.70;;;23.70;99.90;;;;;;5077451;28;20360;-58
2022/08/05 12:24:10;;;;;;;2.33;0.68;;;23.90;99.90;;;;;;5077293;28;20123;-66
2022/08/05 12:26:39;;;;;;;3.80;0.32;;;23.60;99.90;;;;;;5077013;28;20119;-67
2022/08/05 12:29:11;;;;;;;2.67;0.50;;;23.30;99.90;;;;;;5077247;28;20036;-67
2022/08/05 12:31:37;;;;;;;6.03;0.50;;;23.20;99.90;;;;;;5077287;28;20074;-67
2022/08/05 12:34:06;;;;;;;6.38;0.70;;;23.20;99.90;;;;;;5077158;28;20044;-67
2022/08/05 12:36:32;;;;;;;5.25;0.88;;;22.80;99.90;;;;;;5077136;28;20036;-66
2022/08/05 12:38:58;;;;;;;1.42;0.40;;;22.60;99.90;;;;;;5077017;28;20402;-67
2022/08/05 12:41:33;;;;;;;3.58;0.50;;;22.40;99.90;;;;;;5076715;28;20052;-67
2022/08/05 12:44:10;;;;;;;1.83;0.52;;;22.60;99.90;;;;;;5076921;28;20047;-67
2022/08/05 12:46:38;;;;;;;2.85;0.65;;;22.70;99.90;;;;;;5076907;28;20123;-66
2022/08/05 12:49:07;;;;;;;2.85;0.52;;;22.80;99.90;;;;;;5076730;28;20044;-66
2022/08/05 12:51:56;;;;;;;3.05;0.50;;;22.80;99.90;;;;;;5077009;28;20048;-66
2022/08/05 12:54:24;;;;;;;3.63;0.50;;;22.70;99.70;;;;;;5076797;28;20033;-66
2022/08/05 12:57:01;;;;;;;4.35;0.47;;;22.60;99.90;;;;;;5076619;28;20493;-66
2022/08/05 12:59:32;;;;;;;5.05;0.63;;;22.60;98.90;;;;;;5076810;28;20047;-67